sensor_id;sensor_type;location;lat;lon;timestamp;P1;durP1;ratioP1;P2;durP2;ratioP2
10295;SDS011;5193;51.032;6.356;2023-02-13T00:02:15;16.00;;;10.17;;
10295;SDS011;5193;51.032;6.356;2023-02-13T00:04:41;18.37;;;9.77;;
10295;SDS011;5193;51.032;6.356;2023-02-13T00:07:07;19.30;;;10.57;;
10295;SDS011;5193;51.032;6.356;2023-02-13T00:09:35;16.83;;;10.70;;
10295;SDS011;5193;51.032;6.356;2023-02-13T00:12:01;18.40;;;10.93;;
10295;SDS011;5193;51.032;6.356;2023-02-13T00:14:27;17.60;;;10.77;;
10295;SDS011;5193;51.032;6.356;2023-02-13T00:16:52;18.77;;;11.20;;
10295;SDS011;5193;51.032;6.356;2023-02-13T00:19:18;20.90;;;11.90;;
10295;SDS011;5193;51.032;6.356;2023-02-13T00:21:44;20.03;;;11.27;;
10295;SDS011;5193;51.032;6.356;2023-02-13T00:24:09;18.50;;;10.93;;
10295;SDS011;5193;51.032;6.356;2023-02-13T00:26:35;19.33;;;11.90;;
10295;SDS011;5193;51.032;6.356;2023-02-13T00:29:00;20.27;;;12.27;;
10295;SDS011;5193;51.032;6.356;2023-02-13T00:31:26;21.03;;;11.97;;
10295;SDS011;5193;51.032;6.356;2023-02-13T00:33:51;21.27;;;12.27;;
10295;SDS011;5193;51.032;6.356;2023-02-13T00:36:20;19.73;;;11.70;;
10295;SDS011;5193;51.032;6.356;2023-02-13T00:38:47;19.70;;;12.10;;
10295;SDS011;5193;51.032;6.356;2023-02-13T00:41:13;19.90;;;11.80;;
10295;SDS011;5193;51.032;6.356;2023-02-13T00:43:41;19.23;;;11.97;;
10295;SDS011;5193;51.032;6.356;2023-02-13T00:46:06;20.47;;;11.67;;
10295;SDS011;5193;51.032;6.356;2023-02-13T00:48:32;19.50;;;11.33;;
10295;SDS011;5193;51.032;6.356;2023-02-13T00:50:59;23.07;;;12.17;;
10295;SDS011;5193;51.032;6.356;2023-02-13T00:53:25;21.27;;;12.37;;
10295;SDS011;5193;51.032;6.356;2023-02-13T00:55:51;22.70;;;13.00;;
10295;SDS011;5193;51.032;6.356;2023-02-13T00:58:17;25.07;;;13.50;;
10295;SDS011;5193;51.032;6.356;2023-02-13T01:00:43;24.93;;;13.57;;
10295;SDS011;5193;51.032;6.356;2023-02-13T01:03:11;25.33;;;13.97;;
10295;SDS011;5193;51.032;6.356;2023-02-13T01:05:37;24.63;;;14.67;;
10295;SDS011;5193;51.032;6.356;2023-02-13T01:08:04;25.50;;;15.30;;
10295;SDS011;5193;51.032;6.356;2023-02-13T01:10:29;25.83;;;14.43;;
10295;SDS011;5193;51.032;6.356;2023-02-13T01:12:55;24.03;;;13.53;;
10295;SDS011;5193;51.032;6.356;2023-02-13T01:15:21;23.50;;;13.90;;
10295;SDS011;5193;51.032;6.356;2023-02-13T01:17:46;24.70;;;13.93;;
10295;SDS011;5193;51.032;6.356;2023-02-13T01:20:12;26.53;;;14.30;;
10295;SDS011;5193;51.032;6.356;2023-02-13T01:22:38;26.40;;;13.67;;
10295;SDS011;5193;51.032;6.356;2023-02-13T01:25:04;25.07;;;13.90;;
10295;SDS011;5193;51.032;6.356;2023-02-13T01:27:30;26.43;;;14.10;;
10295;SDS011;5193;51.032;6.356;2023-02-13T01:29:56;23.97;;;13.87;;
10295;SDS011;5193;51.032;6.356;2023-02-13T01:32:22;26.93;;;15.10;;
10295;SDS011;5193;51.032;6.356;2023-02-13T01:34:48;26.47;;;15.03;;
10295;SDS011;5193;51.032;6.356;2023-02-13T01:37:14;28.97;;;15.10;;
10295;SDS011;5193;51.032;6.356;2023-02-13T01:39:39;27.97;;;15.90;;
10295;SDS011;5193;51.032;6.356;2023-02-13T01:42:09;26.10;;;15.23;;
10295;SDS011;5193;51.032;6.356;2023-02-13T01:44:47;23.33;;;13.70;;
10295;SDS011;5193;51.032;6.356;2023-02-13T01:47:17;26.73;;;15.63;;
10295;SDS011;5193;51.032;6.356;2023-02-13T01:49:48;27.67;;;15.60;;
10295;SDS011;5193;51.032;6.356;2023-02-13T01:52:25;27.43;;;15.20;;
10295;SDS011;5193;51.032;6.356;2023-02-13T01:54:51;30.50;;;15.00;;
10295;SDS011;5193;51.032;6.356;2023-02-13T01:57:17;31.23;;;16.33;;
10295;SDS011;5193;51.032;6.356;2023-02-13T01:59:48;31.07;;;16.03;;
10295;SDS011;5193;51.032;6.356;2023-02-13T02:02:18;30.80;;;16.23;;
10295;SDS011;5193;51.032;6.356;2023-02-13T02:04:44;34.03;;;15.17;;
10295;SDS011;5193;51.032;6.356;2023-02-13T02:07:20;33.20;;;16.93;;
10295;SDS011;5193;51.032;6.356;2023-02-13T02:09:48;27.77;;;16.07;;
10295;SDS011;5193;51.032;6.356;2023-02-13T02:12:26;35.07;;;17.43;;
10295;SDS011;5193;51.032;6.356;2023-02-13T02:15:00;32.63;;;16.67;;
10295;SDS011;5193;51.032;6.356;2023-02-13T02:17:27;31.13;;;15.93;;
10295;SDS011;5193;51.032;6.356;2023-02-13T02:20:01;29.57;;;16.60;;
10295;SDS011;5193;51.032;6.356;2023-02-13T02:25:03;28.67;;;15.10;;
10295;SDS011;5193;51.032;6.356;2023-02-13T02:35:59;32.57;;;17.23;;
10295;SDS011;5193;51.032;6.356;2023-02-13T02:50:10;24.63;;;13.03;;
10295;SDS011;5193;51.032;6.356;2023-02-13T02:55:37;22.70;;;13.03;;
10295;SDS011;5193;51.032;6.356;2023-02-13T02:58:13;21.43;;;12.73;;
10295;SDS011;5193;51.032;6.356;2023-02-13T03:01:13;28.40;;;14.93;;
10295;SDS011;5193;51.032;6.356;2023-02-13T03:04:00;25.90;;;13.57;;
10295;SDS011;5193;51.032;6.356;2023-02-13T03:06:56;23.90;;;13.90;;
10295;SDS011;5193;51.032;6.356;2023-02-13T03:09:29;21.70;;;12.37;;
10295;SDS011;5193;51.032;6.356;2023-02-13T03:12:18;27.07;;;13.87;;
10295;SDS011;5193;51.032;6.356;2023-02-13T03:15:05;29.67;;;14.07;;
10295;SDS011;5193;51.032;6.356;2023-02-13T03:17:31;29.27;;;14.50;;
10295;SDS011;5193;51.032;6.356;2023-02-13T03:23:06;23.53;;;12.07;;
10295;SDS011;5193;51.032;6.356;2023-02-13T03:25:56;21.47;;;12.80;;
10295;SDS011;5193;51.032;6.356;2023-02-13T03:28:31;25.50;;;14.20;;
10295;SDS011;5193;51.032;6.356;2023-02-13T03:31:44;24.73;;;13.67;;
10295;SDS011;5193;51.032;6.356;2023-02-13T03:34:21;27.00;;;13.63;;
10295;SDS011;5193;51.032;6.356;2023-02-13T03:37:11;19.50;;;11.33;;
10295;SDS011;5193;51.032;6.356;2023-02-13T03:40:02;25.53;;;13.57;;
10295;SDS011;5193;51.032;6.356;2023-02-13T03:45:26;23.90;;;13.73;;
10295;SDS011;5193;51.032;6.356;2023-02-13T03:48:14;22.77;;;13.77;;
10295;SDS011;5193;51.032;6.356;2023-02-13T03:51:02;28.07;;;13.90;;
10295;SDS011;5193;51.032;6.356;2023-02-13T03:53:30;23.93;;;13.23;;
10295;SDS011;5193;51.032;6.356;2023-02-13T03:55:59;29.57;;;14.30;;
10295;SDS011;5193;51.032;6.356;2023-02-13T03:58:46;26.03;;;13.53;;
10295;SDS011;5193;51.032;6.356;2023-02-13T04:01:35;27.87;;;14.17;;
10295;SDS011;5193;51.032;6.356;2023-02-13T04:04:04;25.63;;;12.90;;
10295;SDS011;5193;51.032;6.356;2023-02-13T04:09:15;26.70;;;13.60;;
10295;SDS011;5193;51.032;6.356;2023-02-13T04:11:44;24.67;;;13.80;;
10295;SDS011;5193;51.032;6.356;2023-02-13T04:14:37;26.90;;;14.07;;
10295;SDS011;5193;51.032;6.356;2023-02-13T04:17:32;30.03;;;14.67;;
10295;SDS011;5193;51.032;6.356;2023-02-13T04:20:04;27.23;;;14.93;;
10295;SDS011;5193;51.032;6.356;2023-02-13T04:22:31;28.93;;;14.43;;
10295;SDS011;5193;51.032;6.356;2023-02-13T04:24:56;25.30;;;14.20;;
10295;SDS011;5193;51.032;6.356;2023-02-13T04:27:22;32.20;;;15.50;;
10295;SDS011;5193;51.032;6.356;2023-02-13T04:29:51;26.70;;;14.10;;
10295;SDS011;5193;51.032;6.356;2023-02-13T04:32:17;27.73;;;14.83;;
10295;SDS011;5193;51.032;6.356;2023-02-13T04:34:42;29.60;;;14.53;;
10295;SDS011;5193;51.032;6.356;2023-02-13T04:37:08;22.03;;;13.40;;
10295;SDS011;5193;51.032;6.356;2023-02-13T04:39:34;28.53;;;14.37;;
10295;SDS011;5193;51.032;6.356;2023-02-13T04:41:59;24.30;;;13.43;;
10295;SDS011;5193;51.032;6.356;2023-02-13T04:44:25;24.07;;;13.97;;
10295;SDS011;5193;51.032;6.356;2023-02-13T04:46:50;25.77;;;13.50;;
10295;SDS011;5193;51.032;6.356;2023-02-13T04:49:16;22.43;;;12.57;;
10295;SDS011;5193;51.032;6.356;2023-02-13T04:51:41;27.23;;;13.53;;
10295;SDS011;5193;51.032;6.356;2023-02-13T04:54:07;24.73;;;12.87;;
10295;SDS011;5193;51.032;6.356;2023-02-13T04:56:32;24.90;;;13.43;;
10295;SDS011;5193;51.032;6.356;2023-02-13T04:58:58;23.10;;;12.03;;
10295;SDS011;5193;51.032;6.356;2023-02-13T05:01:24;23.27;;;12.13;;
10295;SDS011;5193;51.032;6.356;2023-02-13T05:03:49;23.07;;;13.30;;
10295;SDS011;5193;51.032;6.356;2023-02-13T05:06:15;22.53;;;13.60;;
10295;SDS011;5193;51.032;6.356;2023-02-13T05:08:40;24.13;;;13.23;;
10295;SDS011;5193;51.032;6.356;2023-02-13T05:11:06;23.30;;;13.17;;
10295;SDS011;5193;51.032;6.356;2023-02-13T05:13:32;21.40;;;12.17;;
10295;SDS011;5193;51.032;6.356;2023-02-13T05:15:57;22.73;;;12.40;;
10295;SDS011;5193;51.032;6.356;2023-02-13T05:18:23;21.57;;;11.53;;
10295;SDS011;5193;51.032;6.356;2023-02-13T05:20:49;24.13;;;13.43;;
10295;SDS011;5193;51.032;6.356;2023-02-13T05:23:34;23.10;;;12.43;;
10295;SDS011;5193;51.032;6.356;2023-02-13T05:26:00;20.10;;;11.93;;
10295;SDS011;5193;51.032;6.356;2023-02-13T05:28:25;22.53;;;12.23;;
10295;SDS011;5193;51.032;6.356;2023-02-13T05:31:10;21.30;;;12.07;;
10295;SDS011;5193;51.032;6.356;2023-02-13T05:33:35;23.07;;;12.53;;
10295;SDS011;5193;51.032;6.356;2023-02-13T05:36:01;21.10;;;12.47;;
10295;SDS011;5193;51.032;6.356;2023-02-13T05:38:27;20.40;;;11.93;;
10295;SDS011;5193;51.032;6.356;2023-02-13T05:40:52;21.03;;;13.03;;
10295;SDS011;5193;51.032;6.356;2023-02-13T05:43:18;23.17;;;12.40;;
10295;SDS011;5193;51.032;6.356;2023-02-13T05:45:44;22.57;;;11.83;;
10295;SDS011;5193;51.032;6.356;2023-02-13T05:48:10;23.43;;;12.10;;
10295;SDS011;5193;51.032;6.356;2023-02-13T05:50:35;19.90;;;12.73;;
10295;SDS011;5193;51.032;6.356;2023-02-13T05:53:01;17.67;;;10.93;;
10295;SDS011;5193;51.032;6.356;2023-02-13T05:55:26;19.97;;;12.63;;
10295;SDS011;5193;51.032;6.356;2023-02-13T05:57:54;22.13;;;13.47;;
10295;SDS011;5193;51.032;6.356;2023-02-13T06:00:21;20.40;;;11.50;;
10295;SDS011;5193;51.032;6.356;2023-02-13T06:02:47;20.33;;;12.00;;
10295;SDS011;5193;51.032;6.356;2023-02-13T06:05:13;22.23;;;12.50;;
10295;SDS011;5193;51.032;6.356;2023-02-13T06:07:38;19.07;;;11.57;;
10295;SDS011;5193;51.032;6.356;2023-02-13T06:10:04;18.67;;;11.07;;
10295;SDS011;5193;51.032;6.356;2023-02-13T06:12:30;25.27;;;13.23;;
10295;SDS011;5193;51.032;6.356;2023-02-13T06:14:56;19.17;;;11.47;;
10295;SDS011;5193;51.032;6.356;2023-02-13T06:17:21;23.37;;;13.20;;
10295;SDS011;5193;51.032;6.356;2023-02-13T06:19:47;21.27;;;12.70;;
10295;SDS011;5193;51.032;6.356;2023-02-13T06:22:12;23.17;;;12.60;;
10295;SDS011;5193;51.032;6.356;2023-02-13T06:24:38;22.00;;;12.47;;
10295;SDS011;5193;51.032;6.356;2023-02-13T06:27:04;25.43;;;13.13;;
10295;SDS011;5193;51.032;6.356;2023-02-13T06:29:29;26.63;;;13.30;;
10295;SDS011;5193;51.032;6.356;2023-02-13T06:31:56;23.73;;;13.10;;
10295;SDS011;5193;51.032;6.356;2023-02-13T06:34:22;23.50;;;12.70;;
10295;SDS011;5193;51.032;6.356;2023-02-13T06:36:48;28.70;;;14.73;;
10295;SDS011;5193;51.032;6.356;2023-02-13T06:39:13;29.57;;;13.87;;
10295;SDS011;5193;51.032;6.356;2023-02-13T06:41:39;22.43;;;11.43;;
10295;SDS011;5193;51.032;6.356;2023-02-13T06:44:04;25.17;;;13.37;;
10295;SDS011;5193;51.032;6.356;2023-02-13T06:46:31;14.50;;;7.70;;
10295;SDS011;5193;51.032;6.356;2023-02-13T06:48:57;21.27;;;12.40;;
10295;SDS011;5193;51.032;6.356;2023-02-13T06:51:22;22.70;;;12.63;;
10295;SDS011;5193;51.032;6.356;2023-02-13T06:53:48;22.07;;;12.47;;
10295;SDS011;5193;51.032;6.356;2023-02-13T06:56:14;23.97;;;11.57;;
10295;SDS011;5193;51.032;6.356;2023-02-13T06:58:40;21.63;;;11.93;;
10295;SDS011;5193;51.032;6.356;2023-02-13T07:01:05;24.10;;;13.77;;
10295;SDS011;5193;51.032;6.356;2023-02-13T07:03:31;23.00;;;12.90;;
10295;SDS011;5193;51.032;6.356;2023-02-13T07:05:57;23.57;;;12.33;;
10295;SDS011;5193;51.032;6.356;2023-02-13T07:08:22;20.40;;;11.90;;
10295;SDS011;5193;51.032;6.356;2023-02-13T07:10:48;25.63;;;13.40;;
10295;SDS011;5193;51.032;6.356;2023-02-13T07:13:13;19.83;;;12.13;;
10295;SDS011;5193;51.032;6.356;2023-02-13T07:15:39;29.23;;;14.57;;
10295;SDS011;5193;51.032;6.356;2023-02-13T07:18:05;24.80;;;14.03;;
10295;SDS011;5193;51.032;6.356;2023-02-13T07:20:30;21.47;;;11.97;;
10295;SDS011;5193;51.032;6.356;2023-02-13T07:23:00;23.17;;;12.23;;
10295;SDS011;5193;51.032;6.356;2023-02-13T07:25:27;23.40;;;13.47;;
10295;SDS011;5193;51.032;6.356;2023-02-13T07:27:53;26.70;;;14.07;;
10295;SDS011;5193;51.032;6.356;2023-02-13T07:30:19;23.23;;;12.77;;
10295;SDS011;5193;51.032;6.356;2023-02-13T07:32:45;23.77;;;13.80;;
10295;SDS011;5193;51.032;6.356;2023-02-13T07:35:11;24.63;;;13.50;;
10295;SDS011;5193;51.032;6.356;2023-02-13T07:37:36;22.93;;;12.40;;
10295;SDS011;5193;51.032;6.356;2023-02-13T07:40:02;23.30;;;12.07;;
10295;SDS011;5193;51.032;6.356;2023-02-13T07:42:31;24.47;;;13.10;;
10295;SDS011;5193;51.032;6.356;2023-02-13T07:44:58;22.13;;;12.50;;
10295;SDS011;5193;51.032;6.356;2023-02-13T07:47:23;23.10;;;12.90;;
10295;SDS011;5193;51.032;6.356;2023-02-13T07:49:49;20.60;;;11.87;;
10295;SDS011;5193;51.032;6.356;2023-02-13T07:52:15;22.53;;;12.20;;
10295;SDS011;5193;51.032;6.356;2023-02-13T07:54:40;24.10;;;13.37;;
10295;SDS011;5193;51.032;6.356;2023-02-13T07:57:11;21.67;;;11.73;;
10295;SDS011;5193;51.032;6.356;2023-02-13T07:59:37;19.40;;;10.67;;
10295;SDS011;5193;51.032;6.356;2023-02-13T08:02:03;26.43;;;12.20;;
10295;SDS011;5193;51.032;6.356;2023-02-13T08:04:29;18.00;;;10.70;;
10295;SDS011;5193;51.032;6.356;2023-02-13T08:06:54;13.60;;;7.63;;
10295;SDS011;5193;51.032;6.356;2023-02-13T08:09:20;21.57;;;11.73;;
10295;SDS011;5193;51.032;6.356;2023-02-13T08:12:04;20.83;;;12.50;;
10295;SDS011;5193;51.032;6.356;2023-02-13T08:14:32;13.77;;;7.60;;
10295;SDS011;5193;51.032;6.356;2023-02-13T08:16:58;21.27;;;12.33;;
10295;SDS011;5193;51.032;6.356;2023-02-13T08:19:25;17.93;;;10.67;;
10295;SDS011;5193;51.032;6.356;2023-02-13T08:21:51;21.97;;;11.07;;
10295;SDS011;5193;51.032;6.356;2023-02-13T08:24:16;22.77;;;13.17;;
10295;SDS011;5193;51.032;6.356;2023-02-13T08:26:42;22.27;;;13.50;;
10295;SDS011;5193;51.032;6.356;2023-02-13T08:29:08;21.57;;;13.03;;
10295;SDS011;5193;51.032;6.356;2023-02-13T08:31:34;22.80;;;13.37;;
10295;SDS011;5193;51.032;6.356;2023-02-13T08:33:59;23.30;;;13.47;;
10295;SDS011;5193;51.032;6.356;2023-02-13T08:36:25;23.47;;;13.83;;
10295;SDS011;5193;51.032;6.356;2023-02-13T08:38:51;22.33;;;11.97;;
10295;SDS011;5193;51.032;6.356;2023-02-13T08:41:16;26.27;;;14.23;;
10295;SDS011;5193;51.032;6.356;2023-02-13T08:43:43;19.10;;;11.53;;
10295;SDS011;5193;51.032;6.356;2023-02-13T08:46:08;27.87;;;15.60;;
10295;SDS011;5193;51.032;6.356;2023-02-13T08:48:34;20.30;;;13.07;;
10295;SDS011;5193;51.032;6.356;2023-02-13T08:51:04;21.93;;;13.27;;
10295;SDS011;5193;51.032;6.356;2023-02-13T08:53:31;23.77;;;13.73;;
10295;SDS011;5193;51.032;6.356;2023-02-13T08:55:57;24.50;;;14.33;;
10295;SDS011;5193;51.032;6.356;2023-02-13T08:58:23;25.90;;;12.67;;
10295;SDS011;5193;51.032;6.356;2023-02-13T09:00:49;24.40;;;13.83;;
10295;SDS011;5193;51.032;6.356;2023-02-13T09:03:15;23.30;;;14.30;;
10295;SDS011;5193;51.032;6.356;2023-02-13T09:05:41;19.40;;;12.13;;
10295;SDS011;5193;51.032;6.356;2023-02-13T09:08:06;23.63;;;15.00;;
10295;SDS011;5193;51.032;6.356;2023-02-13T09:10:35;20.73;;;13.83;;
10295;SDS011;5193;51.032;6.356;2023-02-13T09:13:02;24.00;;;13.83;;
10295;SDS011;5193;51.032;6.356;2023-02-13T09:15:28;22.47;;;13.93;;
10295;SDS011;5193;51.032;6.356;2023-02-13T09:17:54;23.13;;;14.33;;
10295;SDS011;5193;51.032;6.356;2023-02-13T09:20:20;19.37;;;12.53;;
10295;SDS011;5193;51.032;6.356;2023-02-13T09:22:46;24.77;;;15.17;;
10295;SDS011;5193;51.032;6.356;2023-02-13T09:25:12;22.27;;;13.73;;
10295;SDS011;5193;51.032;6.356;2023-02-13T09:27:37;26.37;;;14.97;;
10295;SDS011;5193;51.032;6.356;2023-02-13T09:30:03;25.43;;;14.23;;
10295;SDS011;5193;51.032;6.356;2023-02-13T09:32:34;22.87;;;14.00;;
10295;SDS011;5193;51.032;6.356;2023-02-13T09:35:01;23.17;;;14.30;;
10295;SDS011;5193;51.032;6.356;2023-02-13T09:37:27;22.23;;;13.80;;
10295;SDS011;5193;51.032;6.356;2023-02-13T09:39:53;24.73;;;13.67;;
10295;SDS011;5193;51.032;6.356;2023-02-13T09:42:23;19.17;;;12.97;;
10295;SDS011;5193;51.032;6.356;2023-02-13T09:44:56;22.40;;;13.77;;
10295;SDS011;5193;51.032;6.356;2023-02-13T09:50:05;23.70;;;13.63;;
10295;SDS011;5193;51.032;6.356;2023-02-13T09:52:32;22.43;;;14.13;;
10295;SDS011;5193;51.032;6.356;2023-02-13T09:55:01;19.67;;;11.13;;
10295;SDS011;5193;51.032;6.356;2023-02-13T10:00:03;19.00;;;11.93;;
10295;SDS011;5193;51.032;6.356;2023-02-13T10:02:41;16.03;;;12.03;;
10295;SDS011;5193;51.032;6.356;2023-02-13T10:14:16;20.83;;;12.17;;
10295;SDS011;5193;51.032;6.356;2023-02-13T10:16:57;19.07;;;11.57;;
10295;SDS011;5193;51.032;6.356;2023-02-13T10:22:16;17.00;;;11.70;;
10295;SDS011;5193;51.032;6.356;2023-02-13T10:25:07;18.03;;;12.77;;
10295;SDS011;5193;51.032;6.356;2023-02-13T10:27:58;16.80;;;11.60;;
10295;SDS011;5193;51.032;6.356;2023-02-13T10:30:31;19.23;;;11.87;;
10295;SDS011;5193;51.032;6.356;2023-02-13T10:33:17;24.97;;;12.90;;
10295;SDS011;5193;51.032;6.356;2023-02-13T10:38:26;15.93;;;9.93;;
10295;SDS011;5193;51.032;6.356;2023-02-13T10:58:14;16.93;;;10.67;;
10295;SDS011;5193;51.032;6.356;2023-02-13T11:03:29;12.27;;;9.67;;
10295;SDS011;5193;51.032;6.356;2023-02-13T11:05:55;12.43;;;9.53;;
10295;SDS011;5193;51.032;6.356;2023-02-13T11:10:56;14.13;;;9.30;;
10295;SDS011;5193;51.032;6.356;2023-02-13T11:13:23;11.43;;;8.73;;
10295;SDS011;5193;51.032;6.356;2023-02-13T11:15:57;14.73;;;9.27;;
10295;SDS011;5193;51.032;6.356;2023-02-13T11:18:27;12.07;;;9.03;;
10295;SDS011;5193;51.032;6.356;2023-02-13T11:21:08;12.63;;;9.30;;
10295;SDS011;5193;51.032;6.356;2023-02-13T11:23:45;10.77;;;8.27;;
10295;SDS011;5193;51.032;6.356;2023-02-13T11:31:44;11.77;;;8.60;;
10295;SDS011;5193;51.032;6.356;2023-02-13T11:34:17;13.47;;;8.70;;
10295;SDS011;5193;51.032;6.356;2023-02-13T11:36:52;11.03;;;8.03;;
10295;SDS011;5193;51.032;6.356;2023-02-13T11:39:31;14.70;;;8.33;;
10295;SDS011;5193;51.032;6.356;2023-02-13T11:41:56;10.23;;;7.47;;
10295;SDS011;5193;51.032;6.356;2023-02-13T11:44:27;10.73;;;8.00;;
10295;SDS011;5193;51.032;6.356;2023-02-13T11:46:56;13.00;;;8.73;;
10295;SDS011;5193;51.032;6.356;2023-02-13T11:49:24;11.57;;;9.10;;
10295;SDS011;5193;51.032;6.356;2023-02-13T11:56:56;11.40;;;8.83;;
10295;SDS011;5193;51.032;6.356;2023-02-13T11:59:43;12.67;;;8.60;;
10295;SDS011;5193;51.032;6.356;2023-02-13T12:02:13;12.90;;;9.30;;
10295;SDS011;5193;51.032;6.356;2023-02-13T12:04:44;12.70;;;9.13;;
10295;SDS011;5193;51.032;6.356;2023-02-13T12:07:32;13.33;;;9.10;;
10295;SDS011;5193;51.032;6.356;2023-02-13T12:15:20;14.23;;;9.67;;
10295;SDS011;5193;51.032;6.356;2023-02-13T12:17:48;10.13;;;8.13;;
10295;SDS011;5193;51.032;6.356;2023-02-13T12:23:16;14.23;;;9.30;;
10295;SDS011;5193;51.032;6.356;2023-02-13T12:28:56;11.80;;;9.23;;
10295;SDS011;5193;51.032;6.356;2023-02-13T12:34:26;10.87;;;8.90;;
10295;SDS011;5193;51.032;6.356;2023-02-13T12:39:36;11.30;;;9.00;;
10295;SDS011;5193;51.032;6.356;2023-02-13T12:47:24;10.47;;;7.97;;
10295;SDS011;5193;51.032;6.356;2023-02-13T12:50:01;9.77;;;7.93;;
10295;SDS011;5193;51.032;6.356;2023-02-13T12:56:14;10.93;;;7.70;;
10295;SDS011;5193;51.032;6.356;2023-02-13T13:00:53;10.80;;;7.87;;
10295;SDS011;5193;51.032;6.356;2023-02-13T13:03:24;10.03;;;7.70;;
10295;SDS011;5193;51.032;6.356;2023-02-13T13:06:25;12.30;;;7.97;;
10295;SDS011;5193;51.032;6.356;2023-02-13T13:14:48;9.17;;;7.10;;
10295;SDS011;5193;51.032;6.356;2023-02-13T13:22:43;10.93;;;6.90;;
10295;SDS011;5193;51.032;6.356;2023-02-13T13:27:46;9.13;;;7.27;;
10295;SDS011;5193;51.032;6.356;2023-02-13T13:30:24;9.30;;;6.97;;
10295;SDS011;5193;51.032;6.356;2023-02-13T13:32:59;8.37;;;6.80;;
10295;SDS011;5193;51.032;6.356;2023-02-13T13:35:40;11.17;;;7.10;;
10295;SDS011;5193;51.032;6.356;2023-02-13T13:38:14;8.63;;;6.87;;
10295;SDS011;5193;51.032;6.356;2023-02-13T13:41:03;10.10;;;7.20;;
10295;SDS011;5193;51.032;6.356;2023-02-13T13:49:29;10.00;;;7.37;;
10295;SDS011;5193;51.032;6.356;2023-02-13T13:54:44;8.87;;;7.03;;
10295;SDS011;5193;51.032;6.356;2023-02-13T13:57:15;7.90;;;6.53;;
10295;SDS011;5193;51.032;6.356;2023-02-13T14:04:59;8.10;;;7.23;;
10295;SDS011;5193;51.032;6.356;2023-02-13T14:07:33;8.30;;;6.97;;
10295;SDS011;5193;51.032;6.356;2023-02-13T14:10:05;10.37;;;7.50;;
10295;SDS011;5193;51.032;6.356;2023-02-13T14:13:00;11.97;;;7.33;;
10295;SDS011;5193;51.032;6.356;2023-02-13T14:20:42;11.33;;;7.33;;
10295;SDS011;5193;51.032;6.356;2023-02-13T14:28:42;12.70;;;7.83;;
10295;SDS011;5193;51.032;6.356;2023-02-13T14:31:38;9.67;;;7.60;;
10295;SDS011;5193;51.032;6.356;2023-02-13T14:37:00;12.17;;;7.53;;
10295;SDS011;5193;51.032;6.356;2023-02-13T14:42:35;12.33;;;8.07;;
10295;SDS011;5193;51.032;6.356;2023-02-13T14:45:02;13.70;;;8.37;;
10295;SDS011;5193;51.032;6.356;2023-02-13T14:47:35;17.47;;;7.90;;
10295;SDS011;5193;51.032;6.356;2023-02-13T14:50:05;11.50;;;8.23;;
10295;SDS011;5193;51.032;6.356;2023-02-13T14:52:33;13.50;;;8.33;;
10295;SDS011;5193;51.032;6.356;2023-02-13T14:55:03;12.20;;;8.20;;
10295;SDS011;5193;51.032;6.356;2023-02-13T14:57:39;9.80;;;7.33;;
10295;SDS011;5193;51.032;6.356;2023-02-13T15:00:27;13.37;;;8.30;;
10295;SDS011;5193;51.032;6.356;2023-02-13T15:03:03;15.47;;;8.53;;
10295;SDS011;5193;51.032;6.356;2023-02-13T15:05:37;13.50;;;8.17;;
10295;SDS011;5193;51.032;6.356;2023-02-13T15:08:04;13.13;;;9.30;;
10295;SDS011;5193;51.032;6.356;2023-02-13T16:43:52;12.73;;;6.17;;
10295;SDS011;5193;51.032;6.356;2023-02-13T16:46:26;13.23;;;5.93;;
10295;SDS011;5193;51.032;6.356;2023-02-13T16:48:58;22.53;;;6.07;;
10295;SDS011;5193;51.032;6.356;2023-02-13T16:51:34;12.00;;;5.07;;
10295;SDS011;5193;51.032;6.356;2023-02-13T16:56:56;15.33;;;6.60;;
10295;SDS011;5193;51.032;6.356;2023-02-13T17:04:48;15.20;;;5.40;;
10295;SDS011;5193;51.032;6.356;2023-02-13T17:07:25;7.93;;;5.13;;
10295;SDS011;5193;51.032;6.356;2023-02-13T17:09:53;10.40;;;4.90;;
10295;SDS011;5193;51.032;6.356;2023-02-13T17:12:21;13.90;;;5.67;;
10295;SDS011;5193;51.032;6.356;2023-02-13T17:14:47;13.70;;;6.93;;
10295;SDS011;5193;51.032;6.356;2023-02-13T17:17:14;15.90;;;7.17;;
10295;SDS011;5193;51.032;6.356;2023-02-13T17:19:41;11.83;;;5.83;;
10295;SDS011;5193;51.032;6.356;2023-02-13T17:22:08;14.97;;;6.40;;
10295;SDS011;5193;51.032;6.356;2023-02-13T17:24:49;11.43;;;5.70;;
10295;SDS011;5193;51.032;6.356;2023-02-13T17:27:15;14.07;;;6.37;;
10295;SDS011;5193;51.032;6.356;2023-02-13T17:40:23;10.97;;;6.27;;
10295;SDS011;5193;51.032;6.356;2023-02-13T17:42:53;16.47;;;5.83;;
10295;SDS011;5193;51.032;6.356;2023-02-13T17:45:21;8.03;;;5.50;;
10295;SDS011;5193;51.032;6.356;2023-02-13T17:47:48;14.17;;;5.50;;
10295;SDS011;5193;51.032;6.356;2023-02-13T17:50:14;9.87;;;5.57;;
10295;SDS011;5193;51.032;6.356;2023-02-13T17:52:43;13.00;;;6.07;;
10295;SDS011;5193;51.032;6.356;2023-02-13T17:55:18;7.97;;;5.47;;
10295;SDS011;5193;51.032;6.356;2023-02-13T17:57:49;9.07;;;5.50;;
10295;SDS011;5193;51.032;6.356;2023-02-13T18:00:17;10.80;;;5.97;;
10295;SDS011;5193;51.032;6.356;2023-02-13T18:02:48;16.10;;;5.37;;
10295;SDS011;5193;51.032;6.356;2023-02-13T18:05:15;8.70;;;4.93;;
10295;SDS011;5193;51.032;6.356;2023-02-13T18:07:43;7.67;;;5.07;;
10295;SDS011;5193;51.032;6.356;2023-02-13T18:10:20;9.80;;;5.00;;
10295;SDS011;5193;51.032;6.356;2023-02-13T18:12:48;7.73;;;4.90;;
10295;SDS011;5193;51.032;6.356;2023-02-13T18:15:14;7.67;;;4.30;;
10295;SDS011;5193;51.032;6.356;2023-02-13T18:17:41;7.53;;;4.47;;
10295;SDS011;5193;51.032;6.356;2023-02-13T18:20:07;7.53;;;4.83;;
10295;SDS011;5193;51.032;6.356;2023-02-13T18:22:35;6.10;;;4.30;;
10295;SDS011;5193;51.032;6.356;2023-02-13T18:25:01;5.50;;;4.33;;
10295;SDS011;5193;51.032;6.356;2023-02-13T18:27:26;7.63;;;4.70;;
10295;SDS011;5193;51.032;6.356;2023-02-13T18:29:53;10.13;;;4.00;;
10295;SDS011;5193;51.032;6.356;2023-02-13T18:32:19;6.37;;;3.80;;
10295;SDS011;5193;51.032;6.356;2023-02-13T18:34:46;6.73;;;4.37;;
10295;SDS011;5193;51.032;6.356;2023-02-13T19:39:59;9.40;;;6.10;;
10295;SDS011;5193;51.032;6.356;2023-02-13T19:42:25;8.10;;;6.13;;
10295;SDS011;5193;51.032;6.356;2023-02-13T19:44:50;8.80;;;6.47;;
10295;SDS011;5193;51.032;6.356;2023-02-13T19:47:16;8.70;;;6.63;;
10295;SDS011;5193;51.032;6.356;2023-02-13T19:49:41;10.43;;;6.40;;
10295;SDS011;5193;51.032;6.356;2023-02-13T19:52:07;8.70;;;5.67;;
10295;SDS011;5193;51.032;6.356;2023-02-13T19:54:33;8.37;;;5.97;;
10295;SDS011;5193;51.032;6.356;2023-02-13T19:56:58;7.97;;;5.40;;
10295;SDS011;5193;51.032;6.356;2023-02-13T19:59:29;8.43;;;5.53;;
10295;SDS011;5193;51.032;6.356;2023-02-13T20:01:56;7.80;;;5.40;;
10295;SDS011;5193;51.032;6.356;2023-02-13T20:04:22;8.00;;;5.43;;
10295;SDS011;5193;51.032;6.356;2023-02-13T20:06:48;7.37;;;5.20;;
10295;SDS011;5193;51.032;6.356;2023-02-13T20:09:14;8.67;;;5.53;;
10295;SDS011;5193;51.032;6.356;2023-02-13T20:11:40;9.90;;;5.33;;
10295;SDS011;5193;51.032;6.356;2023-02-13T20:14:09;6.40;;;5.13;;
10295;SDS011;5193;51.032;6.356;2023-02-13T20:16:38;8.93;;;4.97;;
10295;SDS011;5193;51.032;6.356;2023-02-13T20:19:04;8.47;;;5.80;;
10295;SDS011;5193;51.032;6.356;2023-02-13T20:21:33;6.03;;;4.80;;
10295;SDS011;5193;51.032;6.356;2023-02-13T20:23:59;7.73;;;4.97;;
10295;SDS011;5193;51.032;6.356;2023-02-13T20:26:27;8.07;;;5.20;;
10295;SDS011;5193;51.032;6.356;2023-02-13T20:28:54;7.07;;;5.10;;
10295;SDS011;5193;51.032;6.356;2023-02-13T20:31:22;6.33;;;4.73;;